createdAt,value
2023-12-09T00:00:27.185Z,16.15
2023-12-09T00:01:33.778Z,18.50
2023-12-09T00:02:42.458Z,18.85
2023-12-09T00:03:50.743Z,19.10
2023-12-09T00:04:56.924Z,17.88
2023-12-09T00:06:03.584Z,16.35
2023-12-09T00:07:09.810Z,17.77
2023-12-09T00:08:16.444Z,17.90
2023-12-09T00:09:20.486Z,17.17
2023-12-09T00:10:29.268Z,16.65
2023-12-09T00:11:36.129Z,18.15
2023-12-09T00:12:43.860Z,18.17
2023-12-09T00:13:47.715Z,18.83
2023-12-09T00:14:51.604Z,18.63
2023-12-09T00:16:04.001Z,17.35
2023-12-09T00:17:08.953Z,18.52
2023-12-09T00:18:19.159Z,17.50
2023-12-09T00:19:25.905Z,17.52
2023-12-09T00:20:32.789Z,15.38
2023-12-09T00:21:38.641Z,16.92
2023-12-09T00:22:45.932Z,18.02
2023-12-09T00:23:54.614Z,16.65
2023-12-09T00:25:01.190Z,24.90
2023-12-09T00:26:05.779Z,21.52
2023-12-09T00:27:16.213Z,18.10
2023-12-09T00:28:20.153Z,17.85
2023-12-09T00:29:38.829Z,18.40
2023-12-09T00:30:43.912Z,18.13
2023-12-09T00:31:52.133Z,17.80
2023-12-09T00:32:59.444Z,17.20
2023-12-09T00:34:13.688Z,17.75
2023-12-09T00:35:18.993Z,17.75
2023-12-09T00:36:25.669Z,17.50
2023-12-09T00:37:30.871Z,17.80
2023-12-09T00:38:41.278Z,17.48
2023-12-09T00:39:56.067Z,17.77
2023-12-09T00:41:07.138Z,17.40
2023-12-09T00:42:12.651Z,17.67
2023-12-09T00:43:24.073Z,16.95
2023-12-09T00:44:31.631Z,16.80
2023-12-09T00:45:43.353Z,16.75
2023-12-09T00:46:50.471Z,19.02
2023-12-09T00:47:57.423Z,16.17
2023-12-09T00:49:04.000Z,19.05
2023-12-09T00:50:22.462Z,18.00
2023-12-09T00:51:28.488Z,17.95
2023-12-09T00:52:39.065Z,18.63
2023-12-09T00:53:43.745Z,16.63
2023-12-09T00:54:50.251Z,16.58
2023-12-09T00:55:54.207Z,16.67
2023-12-09T00:57:04.048Z,18.17
2023-12-09T00:58:10.573Z,16.92
2023-12-09T00:59:20.277Z,18.30
2023-12-09T01:00:26.988Z,18.33
2023-12-09T01:01:35.151Z,16.85
2023-12-09T01:02:40.288Z,17.60
2023-12-09T01:03:56.246Z,19.05
2023-12-09T01:05:02.576Z,17.52
2023-12-09T01:06:15.785Z,16.38
2023-12-09T01:07:22.406Z,16.17
2023-12-09T01:08:32.757Z,16.55
2023-12-09T01:09:39.552Z,17.90
2023-12-09T01:10:46.440Z,17.38
2023-12-09T01:11:57.349Z,17.67
2023-12-09T01:13:04.021Z,16.63
2023-12-09T01:14:10.515Z,17.98
2023-12-09T01:15:27.403Z,17.58
2023-12-09T01:16:34.227Z,17.15
2023-12-09T01:17:40.104Z,15.90
2023-12-09T01:18:44.042Z,16.95
2023-12-09T01:19:50.626Z,15.88
2023-12-09T01:20:56.422Z,16.50
2023-12-09T01:22:05.660Z,16.80
2023-12-09T01:23:09.595Z,20.92
2023-12-09T01:24:16.302Z,18.50
2023-12-09T01:25:20.325Z,17.83
2023-12-09T01:26:26.765Z,17.55
2023-12-09T01:27:33.731Z,16.65
2023-12-09T01:28:40.267Z,16.38
2023-12-09T01:29:44.744Z,15.32
2023-12-09T01:30:54.005Z,14.40
2023-12-09T01:32:00.256Z,17.60
2023-12-09T01:33:07.024Z,16.83
2023-12-09T01:34:11.118Z,17.95
2023-12-09T01:35:21.323Z,14.75
2023-12-09T01:36:25.415Z,15.32
2023-12-09T01:37:34.769Z,14.63
2023-12-09T01:38:38.662Z,14.80
2023-12-09T01:39:46.536Z,14.63
2023-12-09T01:40:54.883Z,17.45
2023-12-09T01:42:04.378Z,16.27
2023-12-09T01:43:10.612Z,16.55
2023-12-09T01:44:17.223Z,15.73
2023-12-09T01:45:21.815Z,15.30
2023-12-09T01:46:31.185Z,14.77
2023-12-09T01:47:39.711Z,15.20
2023-12-09T01:48:46.596Z,16.98
2023-12-09T01:49:51.279Z,15.73
2023-12-09T01:50:57.913Z,16.25
2023-12-09T01:52:03.709Z,14.55
2023-12-09T01:53:15.431Z,16.30
2023-12-09T01:54:19.495Z,15.10
2023-12-09T01:55:28.234Z,15.57
2023-12-09T01:56:32.480Z,16.27
2023-12-09T01:57:42.027Z,17.25
2023-12-09T01:58:45.959Z,16.33
2023-12-09T01:59:52.578Z,16.95
2023-12-09T02:00:57.153Z,15.68
2023-12-09T02:02:05.289Z,16.65
2023-12-09T02:03:09.353Z,17.70
2023-12-09T02:04:17.541Z,15.93
2023-12-09T02:05:24.629Z,13.65
2023-12-09T02:06:34.506Z,16.00
2023-12-09T02:07:38.382Z,16.15
2023-12-09T02:08:47.546Z,14.85
2023-12-09T02:09:51.826Z,15.93
2023-12-09T02:11:12.848Z,17.30
2023-12-09T02:12:33.151Z,16.42
2023-12-09T02:13:53.473Z,17.52
2023-12-09T02:15:06.701Z,17.20
2023-12-09T02:16:25.374Z,16.05
2023-12-09T02:17:40.016Z,15.90
2023-12-09T02:18:49.355Z,16.10
2023-12-09T02:19:54.819Z,15.77
2023-12-09T02:22:09.784Z,14.45
2023-12-09T02:23:18.938Z,16.08
2023-12-09T02:24:25.942Z,16.02
2023-12-09T02:25:34.844Z,16.05
2023-12-09T02:26:41.292Z,16.73
2023-12-09T02:27:58.388Z,15.30
2023-12-09T02:29:09.438Z,16.52
2023-12-09T02:30:30.625Z,16.88
2023-12-09T02:32:47.840Z,15.15
2023-12-09T02:33:52.680Z,16.85
2023-12-09T02:35:01.291Z,14.13
2023-12-09T02:36:11.759Z,16.30
2023-12-09T02:37:23.686Z,16.70
2023-12-09T02:38:38.892Z,17.17
2023-12-09T02:39:50.094Z,17.27
2023-12-09T02:40:54.404Z,16.10
2023-12-09T02:42:03.952Z,15.15
2023-12-09T02:43:08.403Z,16.08
2023-12-09T02:44:18.035Z,16.15
2023-12-09T02:45:22.266Z,15.25
2023-12-09T02:46:31.419Z,15.63
2023-12-09T02:47:38.086Z,17.63
2023-12-09T02:48:44.589Z,15.13
2023-12-09T02:49:53.530Z,15.55
2023-12-09T02:50:57.169Z,13.57
2023-12-09T02:52:02.873Z,17.75
2023-12-09T02:53:06.498Z,17.50
2023-12-09T02:54:15.632Z,17.35
2023-12-09T02:55:22.829Z,15.45
2023-12-09T02:56:29.307Z,13.45
2023-12-09T02:57:33.250Z,16.67
2023-12-09T02:58:39.773Z,17.92
2023-12-09T02:59:43.733Z,16.20
2023-12-09T03:00:52.826Z,13.95
2023-12-09T03:01:59.086Z,15.77
2023-12-09T03:03:05.684Z,15.25
2023-12-09T03:04:09.812Z,15.75
2023-12-09T03:05:18.781Z,16.80
2023-12-09T03:06:22.722Z,17.10
2023-12-09T03:07:31.559Z,15.68
2023-12-09T03:08:38.641Z,15.38
2023-12-09T03:09:50.745Z,14.65
2023-12-09T03:10:57.661Z,15.45
2023-12-09T03:12:04.640Z,16.98
2023-12-09T03:13:08.539Z,14.68
2023-12-09T03:14:17.532Z,16.10
2023-12-09T03:15:24.133Z,15.65
2023-12-09T03:16:32.557Z,18.20
2023-12-09T03:17:39.667Z,17.80
2023-12-09T03:18:46.274Z,17.02
2023-12-09T03:19:54.796Z,16.35
2023-12-09T03:21:01.425Z,16.77
2023-12-09T03:22:05.692Z,17.58
2023-12-09T03:23:12.120Z,15.95
2023-12-09T03:24:20.856Z,16.90
2023-12-09T03:25:26.654Z,14.50
2023-12-09T03:26:33.162Z,14.77
2023-12-09T03:27:39.646Z,15.00
2023-12-09T03:28:48.441Z,15.50
2023-12-09T03:29:54.483Z,16.95
2023-12-09T03:31:06.909Z,17.20
2023-12-09T03:32:10.820Z,15.65
2023-12-09T03:33:14.789Z,17.17
2023-12-09T03:34:21.385Z,16.90
2023-12-09T03:35:25.344Z,17.00
2023-12-09T03:36:30.989Z,17.90
2023-12-09T03:37:34.907Z,17.08
2023-12-09T03:38:41.455Z,17.60
2023-12-09T03:39:45.311Z,16.40
2023-12-09T03:40:56.933Z,14.32
2023-12-09T03:42:00.844Z,15.55
2023-12-09T03:43:12.057Z,15.68
2023-12-09T03:44:15.988Z,17.23
2023-12-09T03:45:19.924Z,16.65
2023-12-09T03:46:28.596Z,16.08
2023-12-09T03:47:32.536Z,18.08
2023-12-09T03:48:39.281Z,19.20
2023-12-09T03:49:45.807Z,18.60
2023-12-09T03:50:51.899Z,16.88
2023-12-09T03:52:00.104Z,16.33
2023-12-09T03:53:04.016Z,18.77
2023-12-09T03:54:10.598Z,15.93
2023-12-09T03:55:17.114Z,16.25
2023-12-09T03:56:29.265Z,16.92
2023-12-09T03:57:38.519Z,17.67
2023-12-09T03:58:45.081Z,18.35
2023-12-09T03:59:51.218Z,17.15
2023-12-09T04:00:57.775Z,16.83
2023-12-09T04:02:01.693Z,16.38
2023-12-09T04:03:17.247Z,18.05
2023-12-09T04:04:21.165Z,17.83
2023-12-09T04:05:27.820Z,18.90
2023-12-09T04:06:33.756Z,17.20
2023-12-09T04:07:42.430Z,15.82
2023-12-09T04:08:48.340Z,17.83
2023-12-09T04:09:57.845Z,18.00
2023-12-09T04:11:06.361Z,19.63
2023-12-09T04:12:17.719Z,15.80
2023-12-09T04:13:23.440Z,18.50
2023-12-09T04:14:30.308Z,20.20
2023-12-09T04:15:34.329Z,18.80
2023-12-09T04:16:40.916Z,19.20
2023-12-09T04:17:48.729Z,20.25
2023-12-09T04:18:57.904Z,19.05
2023-12-09T04:20:05.824Z,17.52
2023-12-09T04:21:12.582Z,19.30
2023-12-09T04:22:16.561Z,19.15
2023-12-09T04:23:22.983Z,18.92
2023-12-09T04:24:26.910Z,19.55
2023-12-09T04:25:35.380Z,18.85
2023-12-09T04:26:39.905Z,17.85
2023-12-09T04:27:53.628Z,18.17
2023-12-09T04:28:57.070Z,19.05
2023-12-09T04:30:04.703Z,19.13
2023-12-09T04:31:10.631Z,20.55
2023-12-09T04:32:17.107Z,19.70
2023-12-09T04:33:20.510Z,18.25
2023-12-09T04:34:27.048Z,18.73
2023-12-09T04:35:30.851Z,19.30
2023-12-09T04:36:40.186Z,20.00
2023-12-09T04:37:46.749Z,21.13
2023-12-09T04:38:54.421Z,19.40
2023-12-09T04:40:00.766Z,20.88
2023-12-09T04:41:08.027Z,17.45
2023-12-09T04:42:14.210Z,17.27
2023-12-09T04:43:23.340Z,19.00
2023-12-09T04:44:29.452Z,17.25
2023-12-09T04:45:38.498Z,18.15
2023-12-09T04:46:44.853Z,19.83
2023-12-09T04:47:54.849Z,19.83
2023-12-09T04:48:59.356Z,20.02
2023-12-09T04:50:10.539Z,20.55
2023-12-09T04:51:18.136Z,21.65
2023-12-09T04:52:22.025Z,19.90
2023-12-09T04:53:30.733Z,20.92
2023-12-09T04:54:34.511Z,20.02
2023-12-09T04:55:41.679Z,20.38
2023-12-09T04:56:45.574Z,22.50
2023-12-09T04:57:54.304Z,21.38
2023-12-09T04:59:02.182Z,21.08
2023-12-09T05:00:12.503Z,19.27
2023-12-09T05:01:18.744Z,20.75
2023-12-09T05:02:27.598Z,20.27
2023-12-09T05:03:34.894Z,20.75
2023-12-09T05:04:41.223Z,19.48
2023-12-09T05:05:47.752Z,20.00
2023-12-09T05:07:00.458Z,19.85
2023-12-09T05:08:07.895Z,20.95
2023-12-09T05:09:12.923Z,16.00
2023-12-09T05:10:20.823Z,18.60
2023-12-09T05:11:24.736Z,20.10
2023-12-09T05:12:31.571Z,19.42
2023-12-09T05:13:36.104Z,20.40
2023-12-09T05:14:45.158Z,18.85
2023-12-09T05:15:51.651Z,21.65
2023-12-09T05:16:58.297Z,18.52
2023-12-09T05:18:04.040Z,18.88
2023-12-09T05:19:07.826Z,20.13
2023-12-09T05:20:15.588Z,19.98
2023-12-09T05:21:18.893Z,20.67
2023-12-09T05:22:28.164Z,18.48
2023-12-09T05:23:34.760Z,20.02
2023-12-09T05:24:41.320Z,17.90
2023-12-09T05:25:45.558Z,19.35
2023-12-09T05:26:53.406Z,16.90
2023-12-09T05:27:57.300Z,16.67
2023-12-09T05:29:04.751Z,17.08
2023-12-09T05:30:14.997Z,19.85
2023-12-09T05:31:23.952Z,20.75
2023-12-09T05:32:29.986Z,18.00
2023-12-09T05:33:36.477Z,18.25
2023-12-09T05:34:43.193Z,18.35
2023-12-09T05:35:46.869Z,20.73
2023-12-09T05:36:53.371Z,18.50
2023-12-09T05:37:57.243Z,18.30
2023-12-09T05:39:03.811Z,17.58
2023-12-09T05:40:09.751Z,17.00
2023-12-09T05:41:19.649Z,19.15
2023-12-09T05:42:23.558Z,19.45
2023-12-09T05:43:33.204Z,16.92
2023-12-09T05:44:39.095Z,17.98
2023-12-09T05:45:50.358Z,18.05
2023-12-09T05:46:54.410Z,16.30
2023-12-09T05:48:01.493Z,18.73
2023-12-09T05:49:05.966Z,17.00
2023-12-09T05:50:13.853Z,19.10
2023-12-09T05:51:18.115Z,19.95
2023-12-09T05:52:25.886Z,18.33
2023-12-09T05:53:33.952Z,18.00
2023-12-09T05:54:47.771Z,17.50
2023-12-09T05:55:54.816Z,16.65
2023-12-09T05:57:11.791Z,18.77
2023-12-09T05:58:15.752Z,18.75
2023-12-09T05:59:22.284Z,17.88
2023-12-09T06:00:26.389Z,19.45
2023-12-09T06:01:35.911Z,18.17
2023-12-09T06:02:42.434Z,17.55
2023-12-09T06:03:46.329Z,7.68
2023-12-09T06:04:52.900Z,5.45
2023-12-09T06:05:59.753Z,7.57
2023-12-09T06:07:06.414Z,17.98
2023-12-09T06:08:10.394Z,18.08
2023-12-09T06:09:20.910Z,19.35
2023-12-09T06:10:24.826Z,16.23
2023-12-09T06:11:33.544Z,17.30
2023-12-09T06:12:37.701Z,17.95
2023-12-09T06:13:44.211Z,15.90
2023-12-09T06:14:51.162Z,17.55
2023-12-09T06:16:00.620Z,16.08
2023-12-09T06:17:10.080Z,19.25
2023-12-09T06:18:18.053Z,16.85
2023-12-09T06:19:22.054Z,17.92
2023-12-09T06:20:32.572Z,17.48
2023-12-09T06:21:36.500Z,17.08
2023-12-09T06:22:45.412Z,16.38
2023-12-09T06:23:49.443Z,18.15
2023-12-09T06:24:55.920Z,15.73
2023-12-09T06:25:59.739Z,17.88
2023-12-09T06:27:07.158Z,17.70
2023-12-09T06:28:13.301Z,18.42
2023-12-09T06:29:42.401Z,17.67
2023-12-09T06:30:48.801Z,16.70
2023-12-09T06:31:57.031Z,17.40
2023-12-09T06:33:03.697Z,17.23
2023-12-09T06:34:10.432Z,17.15
2023-12-09T06:35:17.364Z,16.20
2023-12-09T06:36:26.035Z,16.35
2023-12-09T06:37:29.934Z,17.30
2023-12-09T06:38:42.683Z,16.67
2023-12-09T06:39:46.642Z,18.45
2023-12-09T06:40:52.771Z,18.05
2023-12-09T06:41:56.729Z,19.38
2023-12-09T06:43:05.492Z,19.88
2023-12-09T06:44:12.490Z,18.30
2023-12-09T06:45:19.119Z,18.48
2023-12-09T06:46:23.093Z,16.60
2023-12-09T06:47:29.630Z,19.75
2023-12-09T06:48:38.852Z,16.88
2023-12-09T06:49:47.962Z,17.30
2023-12-09T06:50:54.218Z,18.83
2023-12-09T06:52:03.180Z,18.15
2023-12-09T06:53:14.576Z,17.35
2023-12-09T06:54:25.073Z,17.85
2023-12-09T06:55:29.010Z,16.70
2023-12-09T06:56:35.483Z,16.92
2023-12-09T06:57:39.433Z,18.35
2023-12-09T06:58:45.890Z,15.90
2023-12-09T06:59:49.757Z,16.63
2023-12-09T07:00:56.336Z,18.10
2023-12-09T07:02:00.280Z,17.88
2023-12-09T07:03:09.660Z,17.92
2023-12-09T07:04:16.374Z,18.17
2023-12-09T07:05:25.114Z,18.40
2023-12-09T07:06:30.780Z,18.90
2023-12-09T07:07:42.021Z,16.23
2023-12-09T07:08:46.049Z,17.90
2023-12-09T07:09:53.710Z,17.02
2023-12-09T07:11:00.767Z,19.17
2023-12-09T07:12:10.695Z,15.70
2023-12-09T07:13:16.690Z,16.65
2023-12-09T07:14:23.216Z,18.05
2023-12-09T07:15:29.399Z,16.70
2023-12-09T07:16:39.476Z,17.48
2023-12-09T07:17:43.519Z,17.10
2023-12-09T07:18:52.896Z,16.75
2023-12-09T07:20:02.684Z,16.95
2023-12-09T07:21:10.017Z,17.40
2023-12-09T07:22:13.959Z,16.30
2023-12-09T07:23:20.896Z,16.58
2023-12-09T07:24:25.639Z,16.83
2023-12-09T07:25:33.215Z,15.65
2023-12-09T07:26:37.160Z,18.30
2023-12-09T07:27:46.243Z,16.75
2023-12-09T07:28:50.465Z,16.17
2023-12-09T07:29:56.157Z,16.65
2023-12-09T07:31:04.943Z,15.95
2023-12-09T07:32:11.649Z,16.88
2023-12-09T07:33:15.655Z,15.40
2023-12-09T07:34:22.502Z,16.35
2023-12-09T07:35:32.060Z,15.20
2023-12-09T07:36:38.639Z,17.00
2023-12-09T07:37:43.341Z,14.20
2023-12-09T07:38:51.019Z,16.20
2023-12-09T07:39:55.389Z,16.55
2023-12-09T07:41:02.735Z,16.67
2023-12-09T07:42:06.686Z,15.10
2023-12-09T07:43:12.553Z,16.23
2023-12-09T07:44:16.469Z,14.75
2023-12-09T07:45:26.316Z,15.85
2023-12-09T07:46:33.812Z,15.23
2023-12-09T07:47:40.349Z,14.45
2023-12-09T07:48:46.785Z,15.52
2023-12-09T07:49:54.986Z,14.38
2023-12-09T07:51:02.315Z,13.05
2023-12-09T07:52:10.263Z,15.07
2023-12-09T07:53:16.405Z,15.32
2023-12-09T07:54:25.142Z,15.82
2023-12-09T07:55:31.676Z,14.88
2023-12-09T07:56:38.196Z,13.63
2023-12-09T07:57:45.167Z,13.60
2023-12-09T07:58:56.017Z,14.90
2023-12-09T07:59:59.859Z,13.57
2023-12-09T08:01:11.324Z,14.02
2023-12-09T08:03:24.057Z,13.45
2023-12-09T08:04:27.981Z,14.18
2023-12-09T08:05:36.094Z,14.27
2023-12-09T08:06:43.328Z,13.52
2023-12-09T08:07:49.849Z,13.00
2023-12-09T08:08:53.477Z,13.45
2023-12-09T08:09:59.798Z,13.13
2023-12-09T08:11:06.993Z,12.65
2023-12-09T08:12:13.560Z,14.32
2023-12-09T08:13:21.481Z,13.07
2023-12-09T08:14:32.056Z,13.32
2023-12-09T08:15:38.723Z,13.18
2023-12-09T08:16:45.204Z,13.30
2023-12-09T08:17:52.187Z,14.18
2023-12-09T08:18:58.750Z,13.27
2023-12-09T08:20:10.318Z,14.80
2023-12-09T08:21:17.382Z,14.48
2023-12-09T08:22:24.012Z,12.38
2023-12-09T08:23:30.989Z,13.48
2023-12-09T08:24:37.927Z,13.32
2023-12-09T08:25:46.849Z,12.77
2023-12-09T08:26:56.818Z,13.52
2023-12-09T08:28:07.136Z,12.52
2023-12-09T08:29:13.088Z,11.00
2023-12-09T08:30:19.545Z,12.93
2023-12-09T08:31:26.171Z,12.65
2023-12-09T08:32:30.466Z,13.48
2023-12-09T08:33:40.114Z,13.85
2023-12-09T08:34:51.283Z,13.57
2023-12-09T08:36:03.274Z,11.77
2023-12-09T08:37:07.187Z,12.60
2023-12-09T08:38:16.340Z,11.85
2023-12-09T08:39:20.320Z,11.75
2023-12-09T08:40:26.870Z,16.23
2023-12-09T08:41:31.022Z,13.63
2023-12-09T08:42:40.290Z,13.50
2023-12-09T08:43:44.404Z,14.80
2023-12-09T08:45:57.363Z,13.88
2023-12-09T08:47:03.898Z,14.38
2023-12-09T08:48:10.274Z,15.27
2023-12-09T08:49:16.910Z,14.43
2023-12-09T08:50:25.533Z,15.02
2023-12-09T08:51:34.796Z,12.50
2023-12-09T08:52:39.252Z,12.85
2023-12-09T08:53:48.566Z,14.60
2023-12-09T08:54:52.462Z,12.70
2023-12-09T08:55:58.945Z,14.27
2023-12-09T08:57:02.855Z,14.50
2023-12-09T08:58:09.325Z,15.45
2023-12-09T08:59:13.325Z,14.77
2023-12-09T09:00:27.417Z,13.00
2023-12-09T09:01:31.457Z,12.32
2023-12-09T09:02:42.023Z,11.68
2023-12-09T09:03:45.978Z,13.32
2023-12-09T09:04:52.518Z,13.65
2023-12-09T09:05:56.469Z,16.65
2023-12-09T09:07:05.130Z,13.20
2023-12-09T09:08:11.980Z,16.25
2023-12-09T09:09:24.180Z,16.02
2023-12-09T09:10:28.327Z,17.38
2023-12-09T09:11:34.769Z,13.70
2023-12-09T09:12:41.902Z,15.90
2023-12-09T09:13:51.049Z,16.27
2023-12-09T09:14:57.795Z,16.08
2023-12-09T09:16:07.221Z,15.05
2023-12-09T09:17:10.691Z,18.13
2023-12-09T09:18:17.563Z,18.25
2023-12-09T09:19:22.320Z,20.35
2023-12-09T09:20:31.003Z,22.48
2023-12-09T09:21:37.944Z,15.77
2023-12-09T09:22:47.093Z,15.50
2023-12-09T09:23:51.515Z,20.42
2023-12-09T09:25:00.725Z,22.10
2023-12-09T09:26:07.545Z,14.98
2023-12-09T09:27:14.025Z,13.27
2023-12-09T09:28:23.229Z,14.25
2023-12-09T09:29:32.045Z,14.40
2023-12-09T09:30:36.163Z,13.27
2023-12-09T09:31:44.760Z,12.18
2023-12-09T09:32:51.469Z,12.30
2023-12-09T09:33:58.339Z,13.00
2023-12-09T09:35:02.491Z,12.50
2023-12-09T09:36:11.027Z,12.50
2023-12-09T09:37:18.506Z,11.27
2023-12-09T09:38:27.769Z,12.15
2023-12-09T09:39:34.715Z,12.77
2023-12-09T09:40:46.357Z,12.23
2023-12-09T09:42:04.733Z,11.18
2023-12-09T09:43:23.925Z,11.50
2023-12-09T09:44:30.371Z,9.43
2023-12-09T09:45:37.591Z,10.75
2023-12-09T09:46:46.264Z,11.98
2023-12-09T09:47:54.294Z,12.32
2023-12-09T09:49:03.753Z,10.65
2023-12-09T09:50:14.283Z,12.68
2023-12-09T09:51:29.663Z,11.98
2023-12-09T09:52:40.170Z,12.20
2023-12-09T09:53:57.757Z,11.60
2023-12-09T09:55:08.706Z,10.57
2023-12-09T09:56:19.893Z,10.98
2023-12-09T09:57:31.960Z,10.52
2023-12-09T09:58:38.838Z,11.15
2023-12-09T09:59:46.140Z,13.05
2023-12-09T10:00:58.583Z,11.70
2023-12-09T10:02:08.775Z,11.70
2023-12-09T10:03:15.823Z,11.25
2023-12-09T10:04:24.953Z,11.73
2023-12-09T10:05:31.499Z,11.77
2023-12-09T10:06:39.826Z,12.32
2023-12-09T10:07:46.432Z,11.15
2023-12-09T10:08:52.939Z,10.88
2023-12-09T10:10:08.072Z,10.63
2023-12-09T10:11:11.915Z,10.65
2023-12-09T10:12:21.082Z,11.63
2023-12-09T10:13:27.365Z,11.15
2023-12-09T10:14:31.193Z,11.05
2023-12-09T10:15:39.155Z,9.90
2023-12-09T10:16:43.804Z,10.35
2023-12-09T10:17:50.446Z,11.73
2023-12-09T10:18:58.085Z,11.30
2023-12-09T10:20:07.192Z,10.73
2023-12-09T10:21:11.192Z,10.35
2023-12-09T10:22:20.593Z,10.43
2023-12-09T10:23:32.926Z,10.15
2023-12-09T10:24:49.884Z,10.85
2023-12-09T10:25:54.588Z,11.10
2023-12-09T10:27:00.164Z,10.02
2023-12-09T10:28:08.941Z,11.07
2023-12-09T10:29:18.024Z,11.38
2023-12-09T10:30:28.346Z,10.57
2023-12-09T10:31:37.761Z,10.35
2023-12-09T10:32:42.368Z,9.73
2023-12-09T10:33:49.072Z,10.80
2023-12-09T10:34:56.392Z,10.05
2023-12-09T10:36:06.010Z,10.35
2023-12-09T10:37:10.517Z,9.60
2023-12-09T10:38:20.436Z,10.77
2023-12-09T10:39:26.992Z,9.80
2023-12-09T10:40:39.860Z,10.20
2023-12-09T10:41:47.483Z,11.32
2023-12-09T10:42:54.365Z,11.48
2023-12-09T10:44:03.849Z,10.80
2023-12-09T10:45:13.583Z,9.25
2023-12-09T10:46:17.430Z,10.10
2023-12-09T10:47:23.960Z,9.98
2023-12-09T10:48:30.441Z,10.82
2023-12-09T10:49:40.609Z,9.65
2023-12-09T10:50:46.254Z,9.25
2023-12-09T10:51:52.783Z,9.98
2023-12-09T10:52:59.102Z,9.43
2023-12-09T10:54:08.235Z,9.60
2023-12-09T10:55:12.264Z,9.20
2023-12-09T10:56:22.921Z,8.98
2023-12-09T10:57:27.530Z,9.52
2023-12-09T10:58:38.576Z,8.73
2023-12-09T10:59:45.634Z,9.07
2023-12-09T11:00:54.608Z,10.05
2023-12-09T11:02:02.847Z,10.77
2023-12-09T11:03:12.885Z,9.00
2023-12-09T11:04:17.262Z,8.27
2023-12-09T11:05:27.508Z,9.70
2023-12-09T11:06:36.064Z,8.93
2023-12-09T11:07:45.597Z,9.13
2023-12-09T11:08:53.203Z,9.45
2023-12-09T11:10:02.313Z,9.68
2023-12-09T11:11:09.487Z,9.75
2023-12-09T11:12:31.042Z,9.70
2023-12-09T11:13:38.894Z,9.30
2023-12-09T11:14:50.193Z,8.80
2023-12-09T11:16:12.142Z,4.63
2023-12-09T11:17:37.695Z,7.22
2023-12-09T11:18:54.091Z,8.63
2023-12-09T11:20:01.924Z,8.77
2023-12-09T11:21:09.705Z,8.48
2023-12-09T11:22:17.570Z,9.32
2023-12-09T11:23:21.947Z,8.93
2023-12-09T11:24:34.580Z,9.85
2023-12-09T11:25:41.797Z,8.75
2023-12-09T11:26:49.604Z,8.73
2023-12-09T11:27:54.936Z,8.50
2023-12-09T11:29:00.390Z,8.35
2023-12-09T11:30:31.710Z,9.30
2023-12-09T11:31:37.965Z,9.73
2023-12-09T11:32:45.522Z,8.40
2023-12-09T11:33:52.887Z,9.00
2023-12-09T11:35:00.749Z,9.52
2023-12-09T11:36:09.512Z,9.02
2023-12-09T11:37:20.529Z,9.55
2023-12-09T11:38:26.175Z,8.48
2023-12-09T11:39:33.093Z,9.48
2023-12-09T11:40:39.524Z,8.38
2023-12-09T11:41:50.217Z,9.43
2023-12-09T11:42:55.551Z,8.95
2023-12-09T11:45:11.655Z,8.88
2023-12-09T11:46:23.156Z,9.40
2023-12-09T11:47:28.760Z,9.77
2023-12-09T11:48:36.116Z,8.18
2023-12-09T11:49:41.277Z,8.13
2023-12-09T11:50:47.844Z,8.40
2023-12-09T11:51:51.709Z,9.50
2023-12-09T11:53:00.439Z,9.60
2023-12-09T11:54:06.939Z,8.25
2023-12-09T11:55:18.616Z,8.10
2023-12-09T11:56:25.645Z,7.80
2023-12-09T11:57:35.889Z,8.32
2023-12-09T11:58:41.977Z,8.02
2023-12-09T11:59:50.955Z,8.52
2023-12-09T12:00:57.904Z,9.50
2023-12-09T12:02:04.439Z,7.78
2023-12-09T12:03:11.151Z,8.13
2023-12-09T12:04:19.982Z,9.30
2023-12-09T12:05:26.272Z,7.85
2023-12-09T12:06:34.214Z,8.02
2023-12-09T12:07:41.353Z,7.95
2023-12-09T12:08:52.857Z,8.40
2023-12-09T12:09:56.841Z,8.48
2023-12-09T12:11:03.078Z,7.72
2023-12-09T12:12:12.798Z,7.97
2023-12-09T12:13:17.370Z,8.52
2023-12-09T12:14:28.218Z,8.32
2023-12-09T12:15:32.379Z,8.48
2023-12-09T12:16:41.680Z,8.70
2023-12-09T12:17:45.884Z,8.70
2023-12-09T12:18:52.848Z,7.55
2023-12-09T12:19:59.275Z,8.02
2023-12-09T12:21:07.060Z,7.78
2023-12-09T12:22:11.153Z,7.07
2023-12-09T12:23:29.888Z,7.22
2023-12-09T12:24:42.315Z,7.57
2023-12-09T12:25:49.047Z,7.75
2023-12-09T12:26:56.972Z,7.68
2023-12-09T12:28:05.991Z,7.38
2023-12-09T12:29:18.152Z,7.63
2023-12-09T12:30:25.877Z,7.53
2023-12-09T12:31:35.236Z,6.32
2023-12-09T12:32:47.185Z,7.65
2023-12-09T12:35:00.098Z,7.05
2023-12-09T12:36:05.999Z,6.90
2023-12-09T12:37:12.621Z,5.55
2023-12-09T12:38:20.038Z,6.95
2023-12-09T12:39:29.403Z,6.57
2023-12-09T12:40:35.835Z,6.75
2023-12-09T12:41:48.897Z,6.88
2023-12-09T12:42:55.588Z,7.53
2023-12-09T12:44:02.643Z,6.55
2023-12-09T12:45:18.717Z,6.57
2023-12-09T12:46:29.801Z,6.43
2023-12-09T12:47:34.704Z,6.95
2023-12-09T12:48:46.499Z,6.20
2023-12-09T12:49:50.684Z,6.05
2023-12-09T12:50:59.723Z,6.05
2023-12-09T12:52:04.633Z,7.00
2023-12-09T12:54:14.550Z,7.00
2023-12-09T12:55:21.169Z,5.40
2023-12-09T12:56:31.315Z,6.35
2023-12-09T12:57:40.162Z,6.90
2023-12-09T12:58:46.868Z,6.38
2023-12-09T12:59:51.324Z,6.32
2023-12-09T13:01:00.131Z,7.43
2023-12-09T13:02:04.682Z,6.72
2023-12-09T13:03:11.469Z,6.30
2023-12-09T13:04:18.273Z,6.25
2023-12-09T13:05:24.958Z,7.60
2023-12-09T13:06:29.092Z,6.38
2023-12-09T13:07:35.782Z,6.30
2023-12-09T13:08:43.970Z,5.72
2023-12-09T13:09:53.006Z,6.68
2023-12-09T13:11:00.401Z,6.38
2023-12-09T13:12:13.786Z,5.95
2023-12-09T13:13:17.837Z,5.65
2023-12-09T13:14:29.748Z,5.53
2023-12-09T13:15:34.475Z,6.53
2023-12-09T13:16:41.303Z,6.85
2023-12-09T13:17:45.730Z,6.35
2023-12-09T13:18:54.159Z,6.93
2023-12-09T13:20:00.867Z,6.15
2023-12-09T13:21:10.479Z,6.97
2023-12-09T13:22:14.580Z,6.10
2023-12-09T13:23:24.274Z,6.35
2023-12-09T13:24:28.343Z,6.95
2023-12-09T13:25:36.153Z,6.40
2023-12-09T13:26:40.193Z,6.40
2023-12-09T13:27:47.218Z,5.65
2023-12-09T13:28:51.291Z,7.57
2023-12-09T13:30:01.344Z,7.40
2023-12-09T13:31:11.066Z,7.68
2023-12-09T13:32:15.120Z,8.63
2023-12-09T13:33:24.429Z,6.70
2023-12-09T13:34:28.536Z,7.55
2023-12-09T13:35:37.775Z,8.95
2023-12-09T13:36:41.277Z,6.55
2023-12-09T13:37:49.359Z,7.40
2023-12-09T13:38:55.895Z,7.60
2023-12-09T13:40:08.462Z,8.65
2023-12-09T13:41:12.507Z,7.85
2023-12-09T13:42:19.139Z,7.72
2023-12-09T13:43:23.148Z,8.07
2023-12-09T13:44:29.712Z,7.82
2023-12-09T13:45:37.417Z,7.65
2023-12-09T13:46:44.138Z,8.48
2023-12-09T13:47:53.523Z,6.75
2023-12-09T13:49:02.677Z,7.13
2023-12-09T13:50:09.032Z,7.20
2023-12-09T13:51:18.445Z,7.60
2023-12-09T13:52:31.052Z,7.75
2023-12-09T13:53:40.358Z,7.38
2023-12-09T13:54:49.883Z,7.53
2023-12-09T13:56:00.796Z,7.32
2023-12-09T13:57:05.149Z,8.02
2023-12-09T13:58:11.794Z,8.05
2023-12-09T13:59:18.837Z,8.23
2023-12-09T14:00:25.623Z,7.55
2023-12-09T14:01:35.916Z,8.75
2023-12-09T14:02:44.642Z,7.93
2023-12-09T14:03:49.746Z,6.50
2023-12-09T14:04:56.899Z,8.07
2023-12-09T14:06:01.071Z,6.97
2023-12-09T14:07:15.101Z,8.90
2023-12-09T14:08:19.158Z,8.10
2023-12-09T14:09:26.061Z,7.68
2023-12-09T14:10:35.609Z,8.15
2023-12-09T14:11:40.052Z,8.07
2023-12-09T14:12:48.966Z,7.97
2023-12-09T14:13:56.451Z,8.10
2023-12-09T14:15:08.923Z,7.72
2023-12-09T14:16:15.232Z,8.18
2023-12-09T14:17:25.007Z,8.63
2023-12-09T14:18:29.455Z,8.05
2023-12-09T14:19:36.211Z,7.90
2023-12-09T14:20:40.290Z,6.80
2023-12-09T14:21:46.991Z,6.95
2023-12-09T14:22:54.651Z,8.00
2023-12-09T14:24:01.217Z,7.97
2023-12-09T14:25:06.718Z,9.07
2023-12-09T14:26:16.517Z,7.93
2023-12-09T14:27:22.879Z,7.93
2023-12-09T14:28:29.485Z,8.15
2023-12-09T14:29:33.466Z,7.65
2023-12-09T14:30:39.992Z,8.10
2023-12-09T14:31:44.025Z,6.50
2023-12-09T14:32:53.770Z,7.82
2023-12-09T14:33:58.126Z,6.97
2023-12-09T14:35:05.077Z,8.00
2023-12-09T14:36:11.017Z,8.15
2023-12-09T14:37:17.604Z,8.27
2023-12-09T14:38:24.291Z,7.47
2023-12-09T14:39:31.321Z,7.97
2023-12-09T14:40:38.347Z,7.95
2023-12-09T14:41:46.445Z,8.90
2023-12-09T14:42:53.599Z,8.93
2023-12-09T14:44:06.086Z,7.65
2023-12-09T14:45:12.364Z,9.15
2023-12-09T14:46:19.306Z,7.53